Rushville, IL

5:22 PM CDT on May 27, 2017 (GMT -0500)
Camden | | Change Station
Active Advisory: Flood Warning

Elev 592 ft 40.15 °N, 90.77 °W | Updated 8 seconds ago

Partly Cloudy
Partly Cloudy
75.9 °F
Feels Like 77 °F
N
3.6
Wind Variable Wind from SSE
Gusts 4.9 mph

Today
High -- | Low -- °F
--% Chance of Precip.
Yesterday
High -- | Low -- °F
Precip. -- in
Pressure 29.87 in
Visibility 10.0 miles
Clouds Clear
Heat Index 77 °F
Dew Point 66 °F
Humidity 71%
Rainfall 0.00 in
Snow Depth Not available.
5:37 AM 8:21 PM
Waxing Crescent, 7% visible
METAR KMQB 272055Z AUTO 13003KT 10SM CLR 24/17 A2987 RMK AO2 LTG DSNT SW T02360171
Pressure 29.87 in
Visibility 10.0 miles
Clouds Clear
Heat Index 77 °F
Dew Point 66 °F
Humidity 71%
Rainfall 0.00 in
Snow Depth Not available.
5:37 AM 8:21 PM
Waxing Crescent, 7% visible
METAR KMQB 272055Z AUTO 13003KT 10SM CLR 24/17 A2987 RMK AO2 LTG DSNT SW T02360171

Get Your Daily Forecast Email!

Thanks for signing up!

Be on the lookout for a verification email in your inbox.

You'll start receiving severe weather alerts in your inbox..

×

10-Day Weather Forecast

Almanac

Astronomy

May. 27, 2017 Rise Set
Actual Time
Civil Twilight
Nautical Twilight
Astronomical Twilight
Moon
Length of Visible Light
Length of Day
Tomorrow will be .
, % of the Moon is Illuminated

Today's Extremes

State Highs State Lows

Community

WunderPhotos

Category 6

Welcome to Category 6. This is the collective home for Weather Underground's featured writeups by Dr. Jeff Masters (right), Bob Henson (left), Chris Burt, and other regular contributors.

Nearby

Air Quality

  Air Quality AQ Index Pollutant
Not available.

Snow Depth

Station Depth Elevation

Earthquake Activity

City Distance Mag. Time & Date
Minimum magnitude displayed is 2.5.

Coastal Water Temperatures

Place Temperature

Stations

Nearby Weather Stations

Station Location Temp. Windchill Dew Point Humidity Wind Precip. Elev Updated Type
                   

Watches & Warnings

Flood Warning
Issued: 10:30 AM CDT May. 27, 2017 – National Weather Service

The Flood Warning continues for
the Illinois River at Beardstown.
* Until further notice.
* At 945 am Saturday the stage was 21.4 feet.
* Flood stage is 14.0 feet.
* Moderate flooding is occurring and moderate flooding is forecast.
* Forecast... the river will continue to fall to a stage of 21.2 feet
by tomorrow morning.
* Impact... at 20.0 feet... seepage problems begin in the south
Beardstown drainage and levee district.



                  Fld observed forecast 6am
location stg stg day time sun Mon Tue

Illinois River
Beardstown 14 21.4 Sat 10 am 21.2 20.9 20.6



Lat... Lon 4018 9023 4012 9017 4008 9037 3999 9046
      3999 9058 4015 9043


Bro